PWSweather.com
Personal Weather Stations
Station Observations
WD4JKH
Forsyth, GA 31029

Forsyth, GA 31029

Lat: 33.033225, Lon: -83.927995

Elevation: 709

Station Type: Davis Vantage VUE

High Low Average
Temperature 53.0°F11.7°C 50.1°F10.1°C 51.5°F10.8°C
Dew Point 52.7°F11.5°C 49.6°F9.8°C 51.1°F10.6°C
Winds 8.2 mph 13.2 kmh 1.0 mph 1.6 kmh 4.0 mph ENE6.4 kmh ENE
Wind Gusts 14.0 mph22.5 kmh 2.0 mph3.2 kmh 10.0 mph16.1 kmh
Humidity 99% 98% 99%
Pressure 30.22 in1023.4 mb 30.02 in1016.6 mb -
Precipitation 0.02 in0.5 mm - -
Hour Temp Dew Point Humidity Winds Wind Gusts Pressure Precip Precip Rate Daily Precip Total
12:04 AM 52.0°F11.1°C 51.4°F10.8°C 98% 4.9 mph NE7.9 kmh NE 10.0 mph16.1 kmh 30.22 in1023.4 mb 0.00 in0.0 mm 0.00 in0.0 mm 0.00 in0.0 mm
12:09 AM 52.0°F11.1°C 51.4°F10.8°C 98% 3.5 mph NE5.6 kmh NE 10.0 mph16.1 kmh 30.22 in1023.4 mb 0.00 in0.0 mm 0.00 in0.0 mm 0.00 in0.0 mm
12:14 AM 51.9°F11.1°C 51.3°F10.7°C 98% 5.7 mph NE9.2 kmh NE 11.0 mph17.7 kmh 30.22 in1023.4 mb 0.00 in0.0 mm 0.00 in0.0 mm 0.00 in0.0 mm
12:19 AM 51.9°F11.1°C 51.3°F10.7°C 98% 6.9 mph ENE11.1 kmh ENE 11.0 mph17.7 kmh 30.22 in1023.4 mb 0.00 in0.0 mm 0.00 in0.0 mm 0.00 in0.0 mm
12:24 AM 51.9°F11.1°C 51.3°F10.7°C 98% 6.0 mph NE9.7 kmh NE 11.0 mph17.7 kmh 30.22 in1023.4 mb 0.00 in0.0 mm 0.00 in0.0 mm 0.00 in0.0 mm
12:29 AM 52.0°F11.1°C 51.4°F10.8°C 98% 4.4 mph NE7.1 kmh NE 11.0 mph17.7 kmh 30.21 in1023.0 mb 0.00 in0.0 mm 0.00 in0.0 mm 0.00 in0.0 mm
12:34 AM 51.9°F11.1°C 51.3°F10.7°C 98% 5.8 mph ENE9.3 kmh ENE 11.0 mph17.7 kmh 30.21 in1023.0 mb 0.00 in0.0 mm 0.00 in0.0 mm 0.00 in0.0 mm
12:39 AM 52.0°F11.1°C 51.5°F10.8°C 98% 3.9 mph NE6.3 kmh NE 11.0 mph17.7 kmh 30.21 in1023.0 mb 0.00 in0.0 mm 0.00 in0.0 mm 0.00 in0.0 mm
12:44 AM 51.9°F11.1°C 51.4°F10.8°C 98% 5.9 mph NE9.5 kmh NE 11.0 mph17.7 kmh 30.21 in1023.0 mb 0.00 in0.0 mm 0.00 in0.0 mm 0.00 in0.0 mm
12:49 AM 51.9°F11.1°C 51.3°F10.7°C 98% 2.6 mph NE4.2 kmh NE 11.0 mph17.7 kmh 30.21 in1023.0 mb 0.00 in0.0 mm 0.00 in0.0 mm 0.00 in0.0 mm
12:54 AM 51.9°F11.1°C 51.3°F10.7°C 98% 8.2 mph NE13.2 kmh NE 11.0 mph17.7 kmh 30.21 in1023.0 mb 0.00 in0.0 mm 0.00 in0.0 mm 0.00 in0.0 mm
12:59 AM 51.8°F11.0°C 51.2°F10.7°C 98% 4.4 mph NE7.1 kmh NE 11.0 mph17.7 kmh 30.21 in1023.0 mb 0.00 in0.0 mm 0.00 in0.0 mm 0.00 in0.0 mm
01:04 AM 51.9°F11.1°C 51.3°F10.7°C 98% 3.5 mph NE5.6 kmh NE 11.0 mph17.7 kmh 30.21 in1023.0 mb 0.00 in0.0 mm 0.00 in0.0 mm 0.00 in0.0 mm
01:09 AM 51.9°F11.1°C 51.3°F10.7°C 98% 5.9 mph ENE9.5 kmh ENE 11.0 mph17.7 kmh 30.20 in1022.7 mb 0.00 in0.0 mm 0.00 in0.0 mm 0.00 in0.0 mm
01:14 AM 51.8°F11.0°C 51.2°F10.7°C 98% 6.1 mph ENE9.8 kmh ENE 11.0 mph17.7 kmh 30.20 in1022.7 mb 0.00 in0.0 mm 0.00 in0.0 mm 0.00 in0.0 mm
01:19 AM 51.9°F11.1°C 51.3°F10.7°C 98% 2.8 mph ENE4.5 kmh ENE 11.0 mph17.7 kmh 30.20 in1022.7 mb 0.00 in0.0 mm 0.00 in0.0 mm 0.00 in0.0 mm
01:24 AM 51.9°F11.1°C 51.3°F10.7°C 98% 3.5 mph ENE5.6 kmh ENE 11.0 mph17.7 kmh 30.20 in1022.7 mb 0.00 in0.0 mm 0.00 in0.0 mm 0.00 in0.0 mm
01:29 AM 51.9°F11.1°C 51.4°F10.8°C 98% 3.4 mph ENE5.5 kmh ENE 11.0 mph17.7 kmh 30.20 in1022.7 mb 0.00 in0.0 mm 0.00 in0.0 mm 0.00 in0.0 mm
01:34 AM 51.9°F11.1°C 51.4°F10.8°C 98% 3.8 mph NE6.1 kmh NE 9.0 mph14.5 kmh 30.20 in1022.7 mb 0.00 in0.0 mm 0.00 in0.0 mm 0.00 in0.0 mm
01:39 AM 51.9°F11.1°C 51.3°F10.7°C 98% 3.1 mph ENE5.0 kmh ENE 9.0 mph14.5 kmh 30.20 in1022.7 mb 0.00 in0.0 mm 0.00 in0.0 mm 0.00 in0.0 mm
01:44 AM 51.9°F11.1°C 51.3°F10.7°C 98% 4.1 mph NE6.6 kmh NE 9.0 mph14.5 kmh 30.20 in1022.7 mb 0.00 in0.0 mm 0.00 in0.0 mm 0.00 in0.0 mm
01:49 AM 51.9°F11.1°C 51.3°F10.7°C 98% 4.3 mph NE6.9 kmh NE 9.0 mph14.5 kmh 30.20 in1022.7 mb 0.00 in0.0 mm 0.00 in0.0 mm 0.00 in0.0 mm
01:54 AM 51.9°F11.1°C 51.3°F10.7°C 98% 2.7 mph NE4.3 kmh NE 9.0 mph14.5 kmh 30.19 in1022.4 mb 0.00 in0.0 mm 0.00 in0.0 mm 0.00 in0.0 mm
01:59 AM 51.9°F11.1°C 51.3°F10.7°C 98% 4.2 mph NE6.8 kmh NE 9.0 mph14.5 kmh 30.19 in1022.4 mb 0.00 in0.0 mm 0.00 in0.0 mm 0.00 in0.0 mm
02:04 AM 52.0°F11.1°C 51.4°F10.8°C 98% 1.8 mph NE2.9 kmh NE 8.0 mph12.9 kmh 30.19 in1022.4 mb 0.00 in0.0 mm 0.00 in0.0 mm 0.00 in0.0 mm
02:09 AM 51.9°F11.1°C 51.3°F10.7°C 98% 4.4 mph ENE7.1 kmh ENE 8.0 mph12.9 kmh 30.19 in1022.4 mb 0.00 in0.0 mm 0.00 in0.0 mm 0.00 in0.0 mm
02:14 AM 51.9°F11.1°C 51.3°F10.7°C 98% 6.8 mph ENE10.9 kmh ENE 11.0 mph17.7 kmh 30.19 in1022.4 mb 0.00 in0.0 mm 0.00 in0.0 mm 0.00 in0.0 mm
02:19 AM 51.9°F11.1°C 51.3°F10.7°C 98% 5.1 mph NE8.2 kmh NE 11.0 mph17.7 kmh 30.19 in1022.4 mb 0.00 in0.0 mm 0.00 in0.0 mm 0.00 in0.0 mm
02:24 AM 51.9°F11.1°C 51.3°F10.7°C 98% 5.3 mph NE8.5 kmh NE 11.0 mph17.7 kmh 30.19 in1022.4 mb 0.00 in0.0 mm 0.00 in0.0 mm 0.00 in0.0 mm
02:29 AM 51.9°F11.1°C 51.4°F10.8°C 98% 3.4 mph NE5.5 kmh NE 11.0 mph17.7 kmh 30.19 in1022.4 mb 0.00 in0.0 mm 0.00 in0.0 mm 0.00 in0.0 mm
02:34 AM 51.9°F11.1°C 51.4°F10.8°C 98% 4.6 mph ENE7.4 kmh ENE 10.0 mph16.1 kmh 30.20 in1022.7 mb 0.00 in0.0 mm 0.00 in0.0 mm 0.00 in0.0 mm
02:39 AM 51.9°F11.1°C 51.4°F10.8°C 98% 5.4 mph NE8.7 kmh NE 10.0 mph16.1 kmh 30.19 in1022.4 mb 0.00 in0.0 mm 0.00 in0.0 mm 0.00 in0.0 mm
02:44 AM 51.9°F11.1°C 51.3°F10.7°C 98% 4.2 mph ENE6.8 kmh ENE 10.0 mph16.1 kmh 30.19 in1022.4 mb 0.00 in0.0 mm 0.00 in0.0 mm 0.00 in0.0 mm
02:49 AM 51.9°F11.1°C 51.3°F10.7°C 98% 5.3 mph NE8.5 kmh NE 12.0 mph19.3 kmh 30.18 in1022.0 mb 0.00 in0.0 mm 0.00 in0.0 mm 0.00 in0.0 mm
02:54 AM 51.9°F11.1°C 51.3°F10.7°C 98% 6.7 mph ENE10.8 kmh ENE 13.0 mph20.9 kmh 30.18 in1022.0 mb 0.00 in0.0 mm 0.00 in0.0 mm 0.00 in0.0 mm
02:59 AM 51.9°F11.1°C 51.3°F10.7°C 98% 3.4 mph ENE5.5 kmh ENE 13.0 mph20.9 kmh 30.18 in1022.0 mb 0.00 in0.0 mm 0.00 in0.0 mm 0.00 in0.0 mm
03:03 AM 51.9°F11.1°C 51.3°F10.7°C 98% 3.8 mph ENE6.1 kmh ENE 13.0 mph20.9 kmh 30.17 in1021.7 mb 0.00 in0.0 mm 0.00 in0.0 mm 0.00 in0.0 mm
03:08 AM 51.9°F11.1°C 51.3°F10.7°C 98% 5.3 mph ENE8.5 kmh ENE 13.0 mph20.9 kmh 30.18 in1022.0 mb 0.00 in0.0 mm 0.00 in0.0 mm 0.00 in0.0 mm
03:13 AM 51.9°F11.1°C 51.3°F10.7°C 98% 4.6 mph E7.4 kmh E 11.0 mph17.7 kmh 30.18 in1022.0 mb 0.00 in0.0 mm 0.00 in0.0 mm 0.00 in0.0 mm
03:18 AM 51.9°F11.1°C 51.3°F10.7°C 98% 4.7 mph ENE7.6 kmh ENE 11.0 mph17.7 kmh 30.17 in1021.7 mb 0.00 in0.0 mm 0.00 in0.0 mm 0.00 in0.0 mm
03:23 AM 51.9°F11.1°C 51.3°F10.7°C 98% 3.0 mph E4.8 kmh E 10.0 mph16.1 kmh 30.17 in1021.7 mb 0.00 in0.0 mm 0.00 in0.0 mm 0.00 in0.0 mm
03:28 AM 51.9°F11.1°C 51.4°F10.8°C 98% 4.0 mph ENE6.4 kmh ENE 9.0 mph14.5 kmh 30.17 in1021.7 mb 0.00 in0.0 mm 0.00 in0.0 mm 0.00 in0.0 mm
03:33 AM 52.0°F11.1°C 51.4°F10.8°C 98% 6.1 mph E9.8 kmh E 12.0 mph19.3 kmh 30.17 in1021.7 mb 0.00 in0.0 mm 0.00 in0.0 mm 0.00 in0.0 mm
03:38 AM 52.0°F11.1°C 51.4°F10.8°C 98% 5.5 mph E8.9 kmh E 12.0 mph19.3 kmh 30.17 in1021.7 mb 0.00 in0.0 mm 0.00 in0.0 mm 0.00 in0.0 mm
03:43 AM 52.1°F11.2°C 51.5°F10.8°C 98% 4.1 mph ENE6.6 kmh ENE 12.0 mph19.3 kmh 30.17 in1021.7 mb 0.00 in0.0 mm 0.00 in0.0 mm 0.00 in0.0 mm
03:48 AM 52.0°F11.1°C 51.4°F10.8°C 98% 6.4 mph E10.3 kmh E 11.0 mph17.7 kmh 30.16 in1021.3 mb 0.00 in0.0 mm 0.00 in0.0 mm 0.00 in0.0 mm
03:53 AM 52.0°F11.1°C 51.4°F10.8°C 98% 5.9 mph E9.5 kmh E 12.0 mph19.3 kmh 30.17 in1021.7 mb 0.00 in0.0 mm 0.00 in0.0 mm 0.00 in0.0 mm
03:58 AM 52.0°F11.1°C 51.4°F10.8°C 98% 5.2 mph E8.4 kmh E 12.0 mph19.3 kmh 30.16 in1021.3 mb 0.00 in0.0 mm 0.00 in0.0 mm 0.00 in0.0 mm
04:03 AM 52.0°F11.1°C 51.4°F10.8°C 98% 3.5 mph E5.6 kmh E 12.0 mph19.3 kmh 30.16 in1021.3 mb 0.00 in0.0 mm 0.00 in0.0 mm 0.00 in0.0 mm
04:08 AM 52.1°F11.2°C 51.5°F10.8°C 98% 4.5 mph E7.2 kmh E 12.0 mph19.3 kmh 30.16 in1021.3 mb 0.00 in0.0 mm 0.00 in0.0 mm 0.00 in0.0 mm
04:13 AM 52.1°F11.2°C 51.6°F10.9°C 98% 2.8 mph ENE4.5 kmh ENE 11.0 mph17.7 kmh 30.16 in1021.3 mb 0.00 in0.0 mm 0.00 in0.0 mm 0.00 in0.0 mm
04:18 AM 52.1°F11.2°C 51.6°F10.9°C 98% 1.9 mph NE3.1 kmh NE 9.0 mph14.5 kmh 30.16 in1021.3 mb 0.00 in0.0 mm 0.00 in0.0 mm 0.00 in0.0 mm
04:23 AM 52.2°F11.2°C 51.6°F10.9°C 98% 4.1 mph ENE6.6 kmh ENE 11.0 mph17.7 kmh 30.17 in1021.7 mb 0.00 in0.0 mm 0.00 in0.0 mm 0.00 in0.0 mm
04:28 AM 52.2°F11.2°C 51.6°F10.9°C 98% 3.6 mph ENE5.8 kmh ENE 11.0 mph17.7 kmh 30.17 in1021.7 mb 0.00 in0.0 mm 0.00 in0.0 mm 0.00 in0.0 mm
04:33 AM 52.3°F11.3°C 51.7°F10.9°C 98% 3.9 mph ENE6.3 kmh ENE 11.0 mph17.7 kmh 30.17 in1021.7 mb 0.00 in0.0 mm 0.00 in0.0 mm 0.00 in0.0 mm
04:38 AM 52.3°F11.3°C 51.7°F10.9°C 98% 5.4 mph ENE8.7 kmh ENE 11.0 mph17.7 kmh 30.17 in1021.7 mb 0.00 in0.0 mm 0.00 in0.0 mm 0.00 in0.0 mm
04:43 AM 52.4°F11.3°C 51.8°F11.0°C 98% 3.4 mph ENE5.5 kmh ENE 9.0 mph14.5 kmh 30.17 in1021.7 mb 0.00 in0.0 mm 0.00 in0.0 mm 0.00 in0.0 mm
04:48 AM 52.4°F11.3°C 51.8°F11.0°C 98% 6.5 mph E10.5 kmh E 9.0 mph14.5 kmh 30.17 in1021.7 mb 0.00 in0.0 mm 0.00 in0.0 mm 0.00 in0.0 mm
04:53 AM 52.5°F11.4°C 51.9°F11.1°C 98% 5.2 mph ENE8.4 kmh ENE 9.0 mph14.5 kmh 30.17 in1021.7 mb 0.00 in0.0 mm 0.00 in0.0 mm 0.00 in0.0 mm
04:58 AM 52.5°F11.4°C 51.9°F11.1°C 98% 4.3 mph ENE6.9 kmh ENE 10.0 mph16.1 kmh 30.17 in1021.7 mb 0.00 in0.0 mm 0.00 in0.0 mm 0.00 in0.0 mm
05:03 AM 52.5°F11.4°C 51.9°F11.1°C 98% 5.8 mph E9.3 kmh E 11.0 mph17.7 kmh 30.17 in1021.7 mb 0.00 in0.0 mm 0.00 in0.0 mm 0.00 in0.0 mm
05:08 AM 52.5°F11.4°C 51.9°F11.1°C 98% 4.1 mph ENE6.6 kmh ENE 11.0 mph17.7 kmh 30.17 in1021.7 mb 0.00 in0.0 mm 0.00 in0.0 mm 0.00 in0.0 mm
05:13 AM 52.6°F11.4°C 52.1°F11.2°C 98% 6.4 mph ENE10.3 kmh ENE 12.0 mph19.3 kmh 30.17 in1021.7 mb 0.00 in0.0 mm 0.00 in0.0 mm 0.00 in0.0 mm
05:18 AM 52.6°F11.4°C 52.0°F11.1°C 98% 4.0 mph E6.4 kmh E 12.0 mph19.3 kmh 30.17 in1021.7 mb 0.00 in0.0 mm 0.00 in0.0 mm 0.00 in0.0 mm
05:23 AM 52.6°F11.4°C 52.1°F11.2°C 98% 5.7 mph ENE9.2 kmh ENE 12.0 mph19.3 kmh 30.17 in1021.7 mb 0.00 in0.0 mm 0.00 in0.0 mm 0.00 in0.0 mm
05:28 AM 52.6°F11.4°C 52.0°F11.1°C 98% 5.1 mph ENE8.2 kmh ENE 12.0 mph19.3 kmh 30.16 in1021.3 mb 0.00 in0.0 mm 0.00 in0.0 mm 0.00 in0.0 mm
05:33 AM 52.6°F11.4°C 52.0°F11.1°C 98% 4.8 mph ENE7.7 kmh ENE 10.0 mph16.1 kmh 30.16 in1021.3 mb 0.00 in0.0 mm 0.00 in0.0 mm 0.00 in0.0 mm
05:38 AM 52.6°F11.4°C 52.0°F11.1°C 98% 2.0 mph ENE3.2 kmh ENE 10.0 mph16.1 kmh 30.17 in1021.7 mb 0.00 in0.0 mm 0.00 in0.0 mm 0.00 in0.0 mm
05:43 AM 52.6°F11.4°C 52.0°F11.1°C 98% 5.2 mph ENE8.4 kmh ENE 11.0 mph17.7 kmh 30.17 in1021.7 mb 0.00 in0.0 mm 0.00 in0.0 mm 0.00 in0.0 mm
05:48 AM 52.6°F11.4°C 52.0°F11.1°C 98% 3.2 mph ENE5.1 kmh ENE 11.0 mph17.7 kmh 30.16 in1021.3 mb 0.00 in0.0 mm 0.00 in0.0 mm 0.00 in0.0 mm
05:53 AM 52.6°F11.4°C 52.0°F11.1°C 98% 4.1 mph E6.6 kmh E 11.0 mph17.7 kmh 30.17 in1021.7 mb 0.00 in0.0 mm 0.00 in0.0 mm 0.00 in0.0 mm
05:58 AM 52.6°F11.4°C 52.0°F11.1°C 98% 5.3 mph NE8.5 kmh NE 11.0 mph17.7 kmh 30.17 in1021.7 mb 0.00 in0.0 mm 0.00 in0.0 mm 0.00 in0.0 mm
06:03 AM 52.6°F11.4°C 52.0°F11.1°C 98% 7.4 mph ENE11.9 kmh ENE 12.0 mph19.3 kmh 30.17 in1021.7 mb 0.00 in0.0 mm 0.00 in0.0 mm 0.00 in0.0 mm
06:08 AM 52.6°F11.4°C 52.3°F11.3°C 99% 5.6 mph ENE9.0 kmh ENE 12.0 mph19.3 kmh 30.17 in1021.7 mb 0.00 in0.0 mm 0.00 in0.0 mm 0.00 in0.0 mm
06:13 AM 52.6°F11.4°C 52.3°F11.3°C 99% 6.1 mph NE9.8 kmh NE 12.0 mph19.3 kmh 30.17 in1021.7 mb 0.00 in0.0 mm 0.00 in0.0 mm 0.00 in0.0 mm
06:18 AM 52.5°F11.4°C 52.2°F11.2°C 99% 6.2 mph ENE10.0 kmh ENE 13.0 mph20.9 kmh 30.17 in1021.7 mb 0.00 in0.0 mm 0.00 in0.0 mm 0.00 in0.0 mm
06:23 AM 52.5°F11.4°C 52.2°F11.2°C 99% 6.7 mph E10.8 kmh E 14.0 mph22.5 kmh 30.17 in1021.7 mb 0.01 in0.3 mm 0.12 in3.0 mm 0.01 in0.3 mm
06:28 AM 52.6°F11.4°C 52.3°F11.3°C 99% 3.7 mph ENE6.0 kmh ENE 14.0 mph22.5 kmh 30.17 in1021.7 mb 0.01 in0.3 mm 0.00 in0.0 mm 0.01 in0.3 mm
06:33 AM 52.6°F11.4°C 52.3°F11.3°C 99% 2.4 mph E3.9 kmh E 14.0 mph22.5 kmh 30.17 in1021.7 mb 0.01 in0.3 mm 0.00 in0.0 mm 0.01 in0.3 mm
06:38 AM 52.6°F11.4°C 52.3°F11.3°C 99% 3.4 mph ENE5.5 kmh ENE 11.0 mph17.7 kmh 30.17 in1021.7 mb 0.01 in0.3 mm 0.00 in0.0 mm 0.01 in0.3 mm
06:43 AM 52.5°F11.4°C 52.2°F11.2°C 99% 3.5 mph NE5.6 kmh NE 9.0 mph14.5 kmh 30.17 in1021.7 mb 0.01 in0.3 mm 0.00 in0.0 mm 0.01 in0.3 mm
06:48 AM 52.4°F11.3°C 52.1°F11.2°C 99% 5.7 mph ENE9.2 kmh ENE 9.0 mph14.5 kmh 30.17 in1021.7 mb 0.01 in0.3 mm 0.00 in0.0 mm 0.01 in0.3 mm
06:53 AM 52.3°F11.3°C 52.0°F11.1°C 99% 3.2 mph NE5.1 kmh NE 12.0 mph19.3 kmh 30.17 in1021.7 mb 0.01 in0.3 mm 0.00 in0.0 mm 0.01 in0.3 mm
06:58 AM 52.2°F11.2°C 51.9°F11.1°C 99% 7.3 mph ENE11.7 kmh ENE 12.0 mph19.3 kmh 30.17 in1021.7 mb 0.01 in0.3 mm 0.00 in0.0 mm 0.01 in0.3 mm
07:03 AM 52.2°F11.2°C 51.9°F11.1°C 99% 5.2 mph NE8.4 kmh NE 12.0 mph19.3 kmh 30.18 in1022.0 mb 0.01 in0.3 mm 0.00 in0.0 mm 0.01 in0.3 mm
07:08 AM 52.2°F11.2°C 51.9°F11.1°C 99% 4.9 mph NE7.9 kmh NE 12.0 mph19.3 kmh 30.18 in1022.0 mb 0.01 in0.3 mm 0.00 in0.0 mm 0.01 in0.3 mm
07:13 AM 52.2°F11.2°C 51.9°F11.1°C 99% 3.3 mph NE5.3 kmh NE 12.0 mph19.3 kmh 30.18 in1022.0 mb 0.01 in0.3 mm 0.00 in0.0 mm 0.01 in0.3 mm
07:18 AM 52.1°F11.2°C 51.8°F11.0°C 99% 4.8 mph ENE7.7 kmh ENE 12.0 mph19.3 kmh 30.18 in1022.0 mb 0.01 in0.3 mm 0.00 in0.0 mm 0.01 in0.3 mm
07:23 AM 52.0°F11.1°C 51.7°F10.9°C 99% 5.3 mph NE8.5 kmh NE 10.0 mph16.1 kmh 30.18 in1022.0 mb 0.00 in0.0 mm 0.00 in0.0 mm 0.01 in0.3 mm
07:28 AM 51.8°F11.0°C 51.2°F10.7°C 98% 4.4 mph ENE7.1 kmh ENE 11.0 mph17.7 kmh 30.18 in1022.0 mb 0.00 in0.0 mm 0.00 in0.0 mm 0.01 in0.3 mm
07:33 AM 51.8°F11.0°C 51.5°F10.8°C 99% 7.0 mph ENE11.3 kmh ENE 11.0 mph17.7 kmh 30.18 in1022.0 mb 0.00 in0.0 mm 0.00 in0.0 mm 0.01 in0.3 mm
07:38 AM 51.7°F10.9°C 51.4°F10.8°C 99% 4.1 mph NE6.6 kmh NE 11.0 mph17.7 kmh 30.18 in1022.0 mb 0.00 in0.0 mm 0.00 in0.0 mm 0.01 in0.3 mm
07:43 AM 51.6°F10.9°C 51.0°F10.6°C 98% 6.2 mph NE10.0 kmh NE 11.0 mph17.7 kmh 30.18 in1022.0 mb 0.00 in0.0 mm 0.00 in0.0 mm 0.01 in0.3 mm
07:48 AM 51.4°F10.8°C 50.9°F10.5°C 98% 6.3 mph ENE10.1 kmh ENE 12.0 mph19.3 kmh 30.18 in1022.0 mb 0.00 in0.0 mm 0.00 in0.0 mm 0.01 in0.3 mm
07:53 AM 51.2°F10.7°C 50.7°F10.4°C 98% 5.4 mph ENE8.7 kmh ENE 12.0 mph19.3 kmh 30.19 in1022.4 mb 0.00 in0.0 mm 0.00 in0.0 mm 0.01 in0.3 mm
07:58 AM 51.1°F10.6°C 50.5°F10.3°C 98% 6.4 mph ENE10.3 kmh ENE 13.0 mph20.9 kmh 30.19 in1022.4 mb 0.00 in0.0 mm 0.00 in0.0 mm 0.01 in0.3 mm
08:02 AM 51.2°F10.7°C 50.6°F10.3°C 98% 5.6 mph NE9.0 kmh NE 13.0 mph20.9 kmh 30.19 in1022.4 mb 0.00 in0.0 mm 0.00 in0.0 mm 0.01 in0.3 mm
08:07 AM 51.1°F10.6°C 50.5°F10.3°C 98% 7.7 mph NE12.4 kmh NE 13.0 mph20.9 kmh 30.19 in1022.4 mb 0.00 in0.0 mm 0.00 in0.0 mm 0.01 in0.3 mm
08:12 AM 51.2°F10.7°C 50.9°F10.5°C 99% 4.4 mph ENE7.1 kmh ENE 13.0 mph20.9 kmh 30.20 in1022.7 mb 0.00 in0.0 mm 0.00 in0.0 mm 0.01 in0.3 mm
08:17 AM 51.2°F10.7°C 50.9°F10.5°C 99% 5.4 mph ENE8.7 kmh ENE 13.0 mph20.9 kmh 30.20 in1022.7 mb 0.00 in0.0 mm 0.00 in0.0 mm 0.01 in0.3 mm
08:22 AM 51.1°F10.6°C 50.8°F10.4°C 99% 3.2 mph ENE5.1 kmh ENE 13.0 mph20.9 kmh 30.20 in1022.7 mb 0.00 in0.0 mm 0.00 in0.0 mm 0.01 in0.3 mm
08:27 AM 51.0°F10.6°C 50.4°F10.2°C 98% 7.1 mph NE11.4 kmh NE 12.0 mph19.3 kmh 30.20 in1022.7 mb 0.00 in0.0 mm 0.00 in0.0 mm 0.01 in0.3 mm
08:32 AM 50.9°F10.5°C 50.6°F10.3°C 99% 5.9 mph NE9.5 kmh NE 12.0 mph19.3 kmh 30.20 in1022.7 mb 0.00 in0.0 mm 0.00 in0.0 mm 0.01 in0.3 mm
08:37 AM 50.7°F10.4°C 50.1°F10.1°C 98% 6.7 mph NE10.8 kmh NE 12.0 mph19.3 kmh 30.20 in1022.7 mb 0.00 in0.0 mm 0.00 in0.0 mm 0.01 in0.3 mm
08:42 AM 50.7°F10.4°C 50.1°F10.1°C 98% 5.1 mph NE8.2 kmh NE 12.0 mph19.3 kmh 30.20 in1022.7 mb 0.00 in0.0 mm 0.00 in0.0 mm 0.01 in0.3 mm
08:47 AM 50.6°F10.3°C 50.0°F10.0°C 98% 6.6 mph NE10.6 kmh NE 11.0 mph17.7 kmh 30.21 in1023.0 mb 0.00 in0.0 mm 0.00 in0.0 mm 0.01 in0.3 mm
08:52 AM 50.5°F10.3°C 49.9°F9.9°C 98% 5.3 mph NE8.5 kmh NE 11.0 mph17.7 kmh 30.21 in1023.0 mb 0.00 in0.0 mm 0.00 in0.0 mm 0.01 in0.3 mm
08:57 AM 50.5°F10.3°C 49.9°F9.9°C 98% 5.0 mph NE8.0 kmh NE 11.0 mph17.7 kmh 30.20 in1022.7 mb 0.00 in0.0 mm 0.00 in0.0 mm 0.01 in0.3 mm
09:02 AM 50.5°F10.3°C 49.9°F9.9°C 98% 3.4 mph NE5.5 kmh NE 11.0 mph17.7 kmh 30.20 in1022.7 mb 0.00 in0.0 mm 0.00 in0.0 mm 0.01 in0.3 mm
09:07 AM 50.3°F10.2°C 49.7°F9.8°C 98% 8.1 mph ENE13.0 kmh ENE 12.0 mph19.3 kmh 30.20 in1022.7 mb 0.00 in0.0 mm 0.00 in0.0 mm 0.01 in0.3 mm
09:12 AM 50.3°F10.2°C 49.7°F9.8°C 98% 2.7 mph NE4.3 kmh NE 12.0 mph19.3 kmh 30.20 in1022.7 mb 0.00 in0.0 mm 0.00 in0.0 mm 0.01 in0.3 mm
09:17 AM 50.4°F10.2°C 49.8°F9.9°C 98% 2.9 mph NE4.7 kmh NE 12.0 mph19.3 kmh 30.20 in1022.7 mb 0.00 in0.0 mm 0.00 in0.0 mm 0.01 in0.3 mm
09:22 AM 50.3°F10.2°C 49.7°F9.8°C 98% 5.2 mph ENE8.4 kmh ENE 12.0 mph19.3 kmh 30.20 in1022.7 mb 0.00 in0.0 mm 0.00 in0.0 mm 0.01 in0.3 mm
09:27 AM 50.2°F10.1°C 49.6°F9.8°C 98% 5.0 mph ENE8.0 kmh ENE 12.0 mph19.3 kmh 30.20 in1022.7 mb 0.00 in0.0 mm 0.00 in0.0 mm 0.01 in0.3 mm
09:32 AM 50.3°F10.2°C 50.0°F10.0°C 99% 3.4 mph ENE5.5 kmh ENE 12.0 mph19.3 kmh 30.20 in1022.7 mb 0.00 in0.0 mm 0.00 in0.0 mm 0.01 in0.3 mm
09:37 AM 50.3°F10.2°C 50.0°F10.0°C 99% 6.1 mph NE9.8 kmh NE 12.0 mph19.3 kmh 30.20 in1022.7 mb 0.00 in0.0 mm 0.00 in0.0 mm 0.01 in0.3 mm
09:42 AM 50.2°F10.1°C 49.9°F9.9°C 99% 4.1 mph ENE6.6 kmh ENE 12.0 mph19.3 kmh 30.20 in1022.7 mb 0.00 in0.0 mm 0.00 in0.0 mm 0.01 in0.3 mm
09:47 AM 50.3°F10.2°C 50.0°F10.0°C 99% 3.8 mph ENE6.1 kmh ENE 11.0 mph17.7 kmh 30.20 in1022.7 mb 0.00 in0.0 mm 0.00 in0.0 mm 0.01 in0.3 mm
09:52 AM 50.3°F10.2°C 50.0°F10.0°C 99% 1.8 mph ENE2.9 kmh ENE 10.0 mph16.1 kmh 30.20 in1022.7 mb 0.00 in0.0 mm 0.00 in0.0 mm 0.01 in0.3 mm
09:57 AM 50.3°F10.2°C 50.0°F10.0°C 99% 4.1 mph ENE6.6 kmh ENE 10.0 mph16.1 kmh 30.20 in1022.7 mb 0.00 in0.0 mm 0.00 in0.0 mm 0.01 in0.3 mm
10:02 AM 50.2°F10.1°C 49.9°F9.9°C 99% 4.5 mph NE7.2 kmh NE 10.0 mph16.1 kmh 30.20 in1022.7 mb 0.00 in0.0 mm 0.00 in0.0 mm 0.01 in0.3 mm
10:07 AM 50.2°F10.1°C 49.9°F9.9°C 99% 5.4 mph NE8.7 kmh NE 10.0 mph16.1 kmh 30.20 in1022.7 mb 0.00 in0.0 mm 0.00 in0.0 mm 0.01 in0.3 mm
10:12 AM 50.1°F10.1°C 49.8°F9.9°C 99% 4.5 mph ENE7.2 kmh ENE 10.0 mph16.1 kmh 30.20 in1022.7 mb 0.00 in0.0 mm 0.00 in0.0 mm 0.01 in0.3 mm
10:17 AM 50.3°F10.2°C 50.0°F10.0°C 99% 2.7 mph NE4.3 kmh NE 10.0 mph16.1 kmh 30.21 in1023.0 mb 0.00 in0.0 mm 0.00 in0.0 mm 0.01 in0.3 mm
10:22 AM 50.4°F10.2°C 50.1°F10.1°C 99% 3.3 mph ENE5.3 kmh ENE 10.0 mph16.1 kmh 30.20 in1022.7 mb 0.00 in0.0 mm 0.00 in0.0 mm 0.01 in0.3 mm
10:27 AM 50.4°F10.2°C 50.1°F10.1°C 99% 3.7 mph ENE6.0 kmh ENE 10.0 mph16.1 kmh 30.20 in1022.7 mb 0.00 in0.0 mm 0.00 in0.0 mm 0.01 in0.3 mm
10:32 AM 50.6°F10.3°C 50.3°F10.2°C 99% 2.2 mph NE3.5 kmh NE 10.0 mph16.1 kmh 30.20 in1022.7 mb 0.00 in0.0 mm 0.00 in0.0 mm 0.01 in0.3 mm
10:37 AM 50.4°F10.2°C 50.1°F10.1°C 99% 4.8 mph ENE7.7 kmh ENE 9.0 mph14.5 kmh 30.20 in1022.7 mb 0.00 in0.0 mm 0.00 in0.0 mm 0.01 in0.3 mm
10:42 AM 50.3°F10.2°C 50.0°F10.0°C 99% 3.5 mph NE5.6 kmh NE 11.0 mph17.7 kmh 30.20 in1022.7 mb 0.00 in0.0 mm 0.00 in0.0 mm 0.01 in0.3 mm
10:47 AM 50.5°F10.3°C 50.2°F10.1°C 99% 4.3 mph NE6.9 kmh NE 11.0 mph17.7 kmh 30.20 in1022.7 mb 0.00 in0.0 mm 0.00 in0.0 mm 0.01 in0.3 mm
10:53 AM 50.5°F10.3°C 50.2°F10.1°C 99% 5.2 mph NE8.4 kmh NE 11.0 mph17.7 kmh 30.20 in1022.7 mb 0.00 in0.0 mm 0.00 in0.0 mm 0.01 in0.3 mm
10:57 AM 50.6°F10.3°C 50.3°F10.2°C 99% 2.5 mph NE4.0 kmh NE 8.0 mph12.9 kmh 30.20 in1022.7 mb 0.00 in0.0 mm 0.00 in0.0 mm 0.01 in0.3 mm
11:03 AM 50.5°F10.3°C 50.2°F10.1°C 99% 4.0 mph NE6.4 kmh NE 9.0 mph14.5 kmh 30.20 in1022.7 mb 0.00 in0.0 mm 0.00 in0.0 mm 0.01 in0.3 mm
11:08 AM 50.5°F10.3°C 50.2°F10.1°C 99% 3.4 mph ENE5.5 kmh ENE 11.0 mph17.7 kmh 30.19 in1022.4 mb 0.00 in0.0 mm 0.00 in0.0 mm 0.01 in0.3 mm
11:13 AM 50.8°F10.4°C 50.5°F10.3°C 99% 1.5 mph ENE2.4 kmh ENE 11.0 mph17.7 kmh 30.19 in1022.4 mb 0.00 in0.0 mm 0.00 in0.0 mm 0.01 in0.3 mm
11:18 AM 51.0°F10.6°C 50.7°F10.4°C 99% 1.0 mph NE1.6 kmh NE 11.0 mph17.7 kmh 30.19 in1022.4 mb 0.00 in0.0 mm 0.00 in0.0 mm 0.01 in0.3 mm
11:23 AM 51.0°F10.6°C 50.7°F10.4°C 99% 2.1 mph ENE3.4 kmh ENE 11.0 mph17.7 kmh 30.19 in1022.4 mb 0.00 in0.0 mm 0.00 in0.0 mm 0.01 in0.3 mm
11:28 AM 50.9°F10.5°C 50.6°F10.3°C 99% 3.4 mph ENE5.5 kmh ENE 7.0 mph11.3 kmh 30.19 in1022.4 mb 0.00 in0.0 mm 0.00 in0.0 mm 0.01 in0.3 mm
11:33 AM 50.6°F10.3°C 50.3°F10.2°C 99% 4.9 mph NE7.9 kmh NE 7.0 mph11.3 kmh 30.19 in1022.4 mb 0.00 in0.0 mm 0.00 in0.0 mm 0.01 in0.3 mm
11:38 AM 50.8°F10.4°C 50.5°F10.3°C 99% 4.2 mph NE6.8 kmh NE 7.0 mph11.3 kmh 30.19 in1022.4 mb 0.00 in0.0 mm 0.00 in0.0 mm 0.01 in0.3 mm
11:43 AM 50.8°F10.4°C 50.5°F10.3°C 99% 3.6 mph NE5.8 kmh NE 7.0 mph11.3 kmh 30.19 in1022.4 mb 0.00 in0.0 mm 0.00 in0.0 mm 0.01 in0.3 mm
11:48 AM 50.7°F10.4°C 50.4°F10.2°C 99% 4.3 mph ENE6.9 kmh ENE 7.0 mph11.3 kmh 30.19 in1022.4 mb 0.00 in0.0 mm 0.00 in0.0 mm 0.01 in0.3 mm
11:53 AM 50.8°F10.4°C 50.5°F10.3°C 99% 3.0 mph NE4.8 kmh NE 7.0 mph11.3 kmh 30.18 in1022.0 mb 0.00 in0.0 mm 0.00 in0.0 mm 0.01 in0.3 mm
11:58 AM 51.0°F10.6°C 50.7°F10.4°C 99% 1.8 mph NE2.9 kmh NE 7.0 mph11.3 kmh 30.18 in1022.0 mb 0.00 in0.0 mm 0.00 in0.0 mm 0.01 in0.3 mm
12:03 PM 50.9°F10.5°C 50.6°F10.3°C 99% 4.4 mph ENE7.1 kmh ENE 8.0 mph12.9 kmh 30.17 in1021.7 mb 0.00 in0.0 mm 0.00 in0.0 mm 0.01 in0.3 mm
12:08 PM 51.0°F10.6°C 50.7°F10.4°C 99% 2.1 mph ENE3.4 kmh ENE 8.0 mph12.9 kmh 30.18 in1022.0 mb 0.00 in0.0 mm 0.00 in0.0 mm 0.01 in0.3 mm
12:13 PM 50.8°F10.4°C 50.5°F10.3°C 99% 5.1 mph NE8.2 kmh NE 8.0 mph12.9 kmh 30.17 in1021.7 mb 0.00 in0.0 mm 0.00 in0.0 mm 0.01 in0.3 mm
12:18 PM 51.0°F10.6°C 50.7°F10.4°C 99% 1.8 mph NE2.9 kmh NE 8.0 mph12.9 kmh 30.17 in1021.7 mb 0.00 in0.0 mm 0.00 in0.0 mm 0.01 in0.3 mm
12:23 PM 51.3°F10.7°C 51.0°F10.6°C 99% 1.9 mph NE3.1 kmh NE 8.0 mph12.9 kmh 30.17 in1021.7 mb 0.00 in0.0 mm 0.00 in0.0 mm 0.01 in0.3 mm
12:28 PM 51.2°F10.7°C 50.9°F10.5°C 99% 2.5 mph NE4.0 kmh NE 8.0 mph12.9 kmh 30.17 in1021.7 mb 0.00 in0.0 mm 0.00 in0.0 mm 0.01 in0.3 mm
12:33 PM 51.1°F10.6°C 50.8°F10.4°C 99% 5.3 mph ENE8.5 kmh ENE 8.0 mph12.9 kmh 30.16 in1021.3 mb 0.00 in0.0 mm 0.00 in0.0 mm 0.01 in0.3 mm
12:38 PM 51.2°F10.7°C 50.9°F10.5°C 99% 4.7 mph ENE7.6 kmh ENE 8.0 mph12.9 kmh 30.15 in1021.0 mb 0.00 in0.0 mm 0.00 in0.0 mm 0.01 in0.3 mm
12:43 PM 51.0°F10.6°C 50.7°F10.4°C 99% 3.2 mph E5.1 kmh E 8.0 mph12.9 kmh 30.16 in1021.3 mb 0.00 in0.0 mm 0.00 in0.0 mm 0.01 in0.3 mm
12:48 PM 51.3°F10.7°C 51.0°F10.6°C 99% 2.9 mph E4.7 kmh E 8.0 mph12.9 kmh 30.15 in1021.0 mb 0.00 in0.0 mm 0.00 in0.0 mm 0.01 in0.3 mm
12:53 PM 51.6°F10.9°C 51.3°F10.7°C 99% 3.3 mph ENE5.3 kmh ENE 8.0 mph12.9 kmh 30.15 in1021.0 mb 0.00 in0.0 mm 0.00 in0.0 mm 0.01 in0.3 mm
12:58 PM 51.5°F10.8°C 51.2°F10.7°C 99% 3.0 mph ENE4.8 kmh ENE 8.0 mph12.9 kmh 30.15 in1021.0 mb 0.00 in0.0 mm 0.00 in0.0 mm 0.01 in0.3 mm
01:02 PM 51.8°F11.0°C 51.5°F10.8°C 99% 2.6 mph NE4.2 kmh NE 8.0 mph12.9 kmh 30.15 in1021.0 mb 0.00 in0.0 mm 0.00 in0.0 mm 0.01 in0.3 mm
01:07 PM 51.9°F11.1°C 51.6°F10.9°C 99% 1.9 mph NE3.1 kmh NE 7.0 mph11.3 kmh 30.15 in1021.0 mb 0.00 in0.0 mm 0.00 in0.0 mm 0.01 in0.3 mm
01:12 PM 52.1°F11.2°C 51.8°F11.0°C 99% 3.0 mph NE4.8 kmh NE 8.0 mph12.9 kmh 30.15 in1021.0 mb 0.00 in0.0 mm 0.00 in0.0 mm 0.01 in0.3 mm
01:17 PM 51.8°F11.0°C 51.5°F10.8°C 99% 3.8 mph NE6.1 kmh NE 11.0 mph17.7 kmh 30.14 in1020.7 mb 0.00 in0.0 mm 0.00 in0.0 mm 0.01 in0.3 mm
01:22 PM 51.8°F11.0°C 51.5°F10.8°C 99% 4.0 mph NE6.4 kmh NE 11.0 mph17.7 kmh 30.14 in1020.7 mb 0.00 in0.0 mm 0.00 in0.0 mm 0.01 in0.3 mm
01:27 PM 51.8°F11.0°C 51.5°F10.8°C 99% 4.7 mph ENE7.6 kmh ENE 11.0 mph17.7 kmh 30.14 in1020.7 mb 0.00 in0.0 mm 0.00 in0.0 mm 0.01 in0.3 mm
01:32 PM 51.8°F11.0°C 51.5°F10.8°C 99% 3.0 mph NE4.8 kmh NE 11.0 mph17.7 kmh 30.14 in1020.7 mb 0.00 in0.0 mm 0.00 in0.0 mm 0.01 in0.3 mm
01:37 PM 52.0°F11.1°C 51.7°F10.9°C 99% 2.7 mph NE4.3 kmh NE 8.0 mph12.9 kmh 30.14 in1020.7 mb 0.00 in0.0 mm 0.00 in0.0 mm 0.01 in0.3 mm
01:42 PM 52.0°F11.1°C 51.7°F10.9°C 99% 2.9 mph ENE4.7 kmh ENE 8.0 mph12.9 kmh 30.13 in1020.3 mb 0.00 in0.0 mm 0.00 in0.0 mm 0.01 in0.3 mm
01:47 PM 51.9°F11.1°C 51.6°F10.9°C 99% 2.7 mph NE4.3 kmh NE 7.0 mph11.3 kmh 30.13 in1020.3 mb 0.00 in0.0 mm 0.00 in0.0 mm 0.01 in0.3 mm
01:52 PM 52.1°F11.2°C 51.8°F11.0°C 99% 3.5 mph ENE5.6 kmh ENE 7.0 mph11.3 kmh 30.12 in1020.0 mb 0.00 in0.0 mm 0.00 in0.0 mm 0.01 in0.3 mm
01:57 PM 52.0°F11.1°C 51.7°F10.9°C 99% 4.4 mph ENE7.1 kmh ENE 7.0 mph11.3 kmh 30.12 in1020.0 mb 0.00 in0.0 mm 0.00 in0.0 mm 0.01 in0.3 mm
02:02 PM 52.3°F11.3°C 52.0°F11.1°C 99% 3.7 mph ENE6.0 kmh ENE 7.0 mph11.3 kmh 30.11 in1019.6 mb 0.00 in0.0 mm 0.00 in0.0 mm 0.01 in0.3 mm
02:07 PM 52.4°F11.3°C 52.1°F11.2°C 99% 3.2 mph E5.1 kmh E 8.0 mph12.9 kmh 30.11 in1019.6 mb 0.00 in0.0 mm 0.00 in0.0 mm 0.01 in0.3 mm
02:12 PM 52.1°F11.2°C 51.8°F11.0°C 99% 6.4 mph E10.3 kmh E 10.0 mph16.1 kmh 30.11 in1019.6 mb 0.00 in0.0 mm 0.00 in0.0 mm 0.01 in0.3 mm
02:17 PM 52.5°F11.4°C 52.2°F11.2°C 99% 2.3 mph ENE3.7 kmh ENE 10.0 mph16.1 kmh 30.11 in1019.6 mb 0.00 in0.0 mm 0.00 in0.0 mm 0.01 in0.3 mm
02:22 PM 52.7°F11.5°C 52.4°F11.3°C 99% 3.0 mph NE4.8 kmh NE 10.0 mph16.1 kmh 30.11 in1019.6 mb 0.00 in0.0 mm 0.00 in0.0 mm 0.01 in0.3 mm
02:27 PM 52.7°F11.5°C 52.4°F11.3°C 99% 4.0 mph ENE6.4 kmh ENE 10.0 mph16.1 kmh 30.11 in1019.6 mb 0.00 in0.0 mm 0.00 in0.0 mm 0.01 in0.3 mm
02:32 PM 52.8°F11.6°C 52.5°F11.4°C 99% 1.7 mph ENE2.7 kmh ENE 8.0 mph12.9 kmh 30.11 in1019.6 mb 0.00 in0.0 mm 0.00 in0.0 mm 0.01 in0.3 mm
02:37 PM 52.8°F11.6°C 52.5°F11.4°C 99% 4.2 mph NE6.8 kmh NE 7.0 mph11.3 kmh 30.11 in1019.6 mb 0.00 in0.0 mm 0.00 in0.0 mm 0.01 in0.3 mm
02:42 PM 52.7°F11.5°C 52.4°F11.3°C 99% 5.3 mph NE8.5 kmh NE 9.0 mph14.5 kmh 30.11 in1019.6 mb 0.00 in0.0 mm 0.00 in0.0 mm 0.01 in0.3 mm
02:47 PM 52.6°F11.4°C 52.3°F11.3°C 99% 4.2 mph NE6.8 kmh NE 9.0 mph14.5 kmh 30.11 in1019.6 mb 0.00 in0.0 mm 0.00 in0.0 mm 0.01 in0.3 mm
02:52 PM 52.7°F11.5°C 52.4°F11.3°C 99% 6.6 mph ENE10.6 kmh ENE 10.0 mph16.1 kmh 30.10 in1019.3 mb 0.00 in0.0 mm 0.00 in0.0 mm 0.01 in0.3 mm
02:57 PM 52.8°F11.6°C 52.5°F11.4°C 99% 1.9 mph NE3.1 kmh NE 10.0 mph16.1 kmh 30.10 in1019.3 mb 0.00 in0.0 mm 0.00 in0.0 mm 0.01 in0.3 mm
03:02 PM 52.8°F11.6°C 52.5°F11.4°C 99% 5.2 mph NE8.4 kmh NE 10.0 mph16.1 kmh 30.10 in1019.3 mb 0.00 in0.0 mm 0.00 in0.0 mm 0.01 in0.3 mm
03:07 PM 52.7°F11.5°C 52.4°F11.3°C 99% 5.0 mph NE8.0 kmh NE 10.0 mph16.1 kmh 30.10 in1019.3 mb 0.00 in0.0 mm 0.00 in0.0 mm 0.01 in0.3 mm
03:12 PM 52.7°F11.5°C 52.4°F11.3°C 99% 4.4 mph NE7.1 kmh NE 9.0 mph14.5 kmh 30.11 in1019.6 mb 0.00 in0.0 mm 0.00 in0.0 mm 0.01 in0.3 mm
03:17 PM 52.6°F11.4°C 52.3°F11.3°C 99% 3.8 mph NE6.1 kmh NE 9.0 mph14.5 kmh 30.10 in1019.3 mb 0.00 in0.0 mm 0.00 in0.0 mm 0.01 in0.3 mm
03:22 PM 52.6°F11.4°C 52.3°F11.3°C 99% 4.2 mph ENE6.8 kmh ENE 9.0 mph14.5 kmh 30.10 in1019.3 mb 0.00 in0.0 mm 0.00 in0.0 mm 0.01 in0.3 mm
03:27 PM 52.5°F11.4°C 52.2°F11.2°C 99% 4.6 mph NE7.4 kmh NE 9.0 mph14.5 kmh 30.10 in1019.3 mb 0.00 in0.0 mm 0.00 in0.0 mm 0.01 in0.3 mm
03:32 PM 52.5°F11.4°C 52.2°F11.2°C 99% 4.6 mph ENE7.4 kmh ENE 10.0 mph16.1 kmh 30.10 in1019.3 mb 0.00 in0.0 mm 0.00 in0.0 mm 0.01 in0.3 mm
03:37 PM 52.6°F11.4°C 52.3°F11.3°C 99% 6.6 mph ENE10.6 kmh ENE 10.0 mph16.1 kmh 30.09 in1019.0 mb 0.00 in0.0 mm 0.00 in0.0 mm 0.01 in0.3 mm
03:42 PM 52.6°F11.4°C 52.3°F11.3°C 99% 2.6 mph ENE4.2 kmh ENE 10.0 mph16.1 kmh 30.09 in1019.0 mb 0.00 in0.0 mm 0.00 in0.0 mm 0.01 in0.3 mm
03:47 PM 52.6°F11.4°C 52.3°F11.3°C 99% 5.7 mph NE9.2 kmh NE 11.0 mph17.7 kmh 30.09 in1019.0 mb 0.00 in0.0 mm 0.00 in0.0 mm 0.01 in0.3 mm
03:52 PM 52.4°F11.3°C 52.1°F11.2°C 99% 3.8 mph NE6.1 kmh NE 11.0 mph17.7 kmh 30.09 in1019.0 mb 0.00 in0.0 mm 0.00 in0.0 mm 0.01 in0.3 mm
03:57 PM 52.5°F11.4°C 52.2°F11.2°C 99% 6.5 mph NE10.5 kmh NE 11.0 mph17.7 kmh 30.09 in1019.0 mb 0.00 in0.0 mm 0.00 in0.0 mm 0.01 in0.3 mm
04:02 PM 52.6°F11.4°C 52.3°F11.3°C 99% 3.4 mph NE5.5 kmh NE 11.0 mph17.7 kmh 30.09 in1019.0 mb 0.00 in0.0 mm 0.00 in0.0 mm 0.01 in0.3 mm
04:07 PM 52.5°F11.4°C 52.2°F11.2°C 99% 5.0 mph ENE8.0 kmh ENE 9.0 mph14.5 kmh 30.09 in1019.0 mb 0.00 in0.0 mm 0.00 in0.0 mm 0.01 in0.3 mm
04:12 PM 52.6°F11.4°C 52.3°F11.3°C 99% 4.1 mph ENE6.6 kmh ENE 9.0 mph14.5 kmh 30.10 in1019.3 mb 0.00 in0.0 mm 0.00 in0.0 mm 0.01 in0.3 mm
04:17 PM 52.8°F11.6°C 52.5°F11.4°C 99% 2.6 mph ENE4.2 kmh ENE 9.0 mph14.5 kmh 30.09 in1019.0 mb 0.00 in0.0 mm 0.00 in0.0 mm 0.01 in0.3 mm
04:22 PM 52.8°F11.6°C 52.5°F11.4°C 99% 3.6 mph NE5.8 kmh NE 9.0 mph14.5 kmh 30.09 in1019.0 mb 0.00 in0.0 mm 0.00 in0.0 mm 0.01 in0.3 mm
04:27 PM 52.9°F11.6°C 52.6°F11.4°C 99% 2.8 mph NE4.5 kmh NE 8.0 mph12.9 kmh 30.09 in1019.0 mb 0.00 in0.0 mm 0.00 in0.0 mm 0.01 in0.3 mm
04:32 PM 53.0°F11.7°C 52.7°F11.5°C 99% 4.7 mph NE7.6 kmh NE 10.0 mph16.1 kmh 30.09 in1019.0 mb 0.00 in0.0 mm 0.00 in0.0 mm 0.01 in0.3 mm
04:37 PM 52.7°F11.5°C 52.4°F11.3°C 99% 4.1 mph NE6.6 kmh NE 12.0 mph19.3 kmh 30.09 in1019.0 mb 0.00 in0.0 mm 0.00 in0.0 mm 0.01 in0.3 mm
04:42 PM 52.6°F11.4°C 52.3°F11.3°C 99% 4.4 mph NE7.1 kmh NE 12.0 mph19.3 kmh 30.08 in1018.6 mb 0.00 in0.0 mm 0.00 in0.0 mm 0.01 in0.3 mm
04:47 PM 52.6°F11.4°C 52.3°F11.3°C 99% 2.9 mph NE4.7 kmh NE 12.0 mph19.3 kmh 30.08 in1018.6 mb 0.00 in0.0 mm 0.00 in0.0 mm 0.01 in0.3 mm
04:52 PM 52.6°F11.4°C 52.3°F11.3°C 99% 2.8 mph NE4.5 kmh NE 12.0 mph19.3 kmh 30.08 in1018.6 mb 0.00 in0.0 mm 0.00 in0.0 mm 0.01 in0.3 mm
04:57 PM 52.4°F11.3°C 52.1°F11.2°C 99% 3.3 mph NE5.3 kmh NE 8.0 mph12.9 kmh 30.08 in1018.6 mb 0.00 in0.0 mm 0.00 in0.0 mm 0.01 in0.3 mm
05:02 PM 52.2°F11.2°C 51.9°F11.1°C 99% 4.4 mph NE7.1 kmh NE 10.0 mph16.1 kmh 30.08 in1018.6 mb 0.00 in0.0 mm 0.00 in0.0 mm 0.01 in0.3 mm
05:07 PM 52.1°F11.2°C 51.8°F11.0°C 99% 6.4 mph ENE10.3 kmh ENE 10.0 mph16.1 kmh 30.07 in1018.3 mb 0.00 in0.0 mm 0.00 in0.0 mm 0.01 in0.3 mm
05:12 PM 51.9°F11.1°C 51.6°F10.9°C 99% 5.2 mph NE8.4 kmh NE 11.0 mph17.7 kmh 30.08 in1018.6 mb 0.00 in0.0 mm 0.00 in0.0 mm 0.01 in0.3 mm
05:17 PM 52.0°F11.1°C 51.7°F10.9°C 99% 5.4 mph NE8.7 kmh NE 11.0 mph17.7 kmh 30.07 in1018.3 mb 0.00 in0.0 mm 0.00 in0.0 mm 0.01 in0.3 mm
05:22 PM 51.8°F11.0°C 51.5°F10.8°C 99% 3.6 mph ENE5.8 kmh ENE 11.0 mph17.7 kmh 30.07 in1018.3 mb 0.00 in0.0 mm 0.00 in0.0 mm 0.01 in0.3 mm
05:27 PM 51.7°F10.9°C 51.4°F10.8°C 99% 5.4 mph NE8.7 kmh NE 12.0 mph19.3 kmh 30.07 in1018.3 mb 0.00 in0.0 mm 0.00 in0.0 mm 0.01 in0.3 mm
05:32 PM 51.7°F10.9°C 51.4°F10.8°C 99% 5.3 mph ENE8.5 kmh ENE 12.0 mph19.3 kmh 30.06 in1017.9 mb 0.00 in0.0 mm 0.00 in0.0 mm 0.01 in0.3 mm
05:37 PM 51.7°F10.9°C 51.4°F10.8°C 99% 3.7 mph ENE6.0 kmh ENE 12.0 mph19.3 kmh 30.06 in1017.9 mb 0.00 in0.0 mm 0.00 in0.0 mm 0.01 in0.3 mm
05:42 PM 51.8°F11.0°C 51.5°F10.8°C 99% 4.8 mph ENE7.7 kmh ENE 12.0 mph19.3 kmh 30.06 in1017.9 mb 0.00 in0.0 mm 0.00 in0.0 mm 0.01 in0.3 mm
05:47 PM 51.6°F10.9°C 51.3°F10.7°C 99% 5.7 mph NE9.2 kmh NE 10.0 mph16.1 kmh 30.06 in1017.9 mb 0.00 in0.0 mm 0.00 in0.0 mm 0.01 in0.3 mm
05:52 PM 51.5°F10.8°C 51.2°F10.7°C 99% 5.1 mph ENE8.2 kmh ENE 10.0 mph16.1 kmh 30.06 in1017.9 mb 0.00 in0.0 mm 0.00 in0.0 mm 0.01 in0.3 mm
05:57 PM 51.5°F10.8°C 51.2°F10.7°C 99% 3.9 mph ENE6.3 kmh ENE 10.0 mph16.1 kmh 30.06 in1017.9 mb 0.00 in0.0 mm 0.00 in0.0 mm 0.01 in0.3 mm
06:01 PM 51.4°F10.8°C 51.1°F10.6°C 99% 4.3 mph ENE6.9 kmh ENE 10.0 mph16.1 kmh 30.07 in1018.3 mb 0.00 in0.0 mm 0.00 in0.0 mm 0.01 in0.3 mm
06:06 PM 51.5°F10.8°C 51.2°F10.7°C 99% 3.6 mph NE5.8 kmh NE 9.0 mph14.5 kmh 30.06 in1017.9 mb 0.00 in0.0 mm 0.00 in0.0 mm 0.01 in0.3 mm
06:11 PM 51.4°F10.8°C 51.1°F10.6°C 99% 4.8 mph ENE7.7 kmh ENE 11.0 mph17.7 kmh 30.07 in1018.3 mb 0.00 in0.0 mm 0.00 in0.0 mm 0.01 in0.3 mm
06:16 PM 51.3°F10.7°C 51.0°F10.6°C 99% 2.9 mph ENE4.7 kmh ENE 11.0 mph17.7 kmh 30.07 in1018.3 mb 0.00 in0.0 mm 0.00 in0.0 mm 0.01 in0.3 mm
06:21 PM 51.3°F10.7°C 51.0°F10.6°C 99% 4.0 mph ENE6.4 kmh ENE 11.0 mph17.7 kmh 30.07 in1018.3 mb 0.00 in0.0 mm 0.00 in0.0 mm 0.01 in0.3 mm
06:26 PM 51.3°F10.7°C 51.0°F10.6°C 99% 3.9 mph E6.3 kmh E 10.0 mph16.1 kmh 30.07 in1018.3 mb 0.00 in0.0 mm 0.00 in0.0 mm 0.01 in0.3 mm
06:31 PM 51.3°F10.7°C 51.0°F10.6°C 99% 3.8 mph NE6.1 kmh NE 10.0 mph16.1 kmh 30.07 in1018.3 mb 0.00 in0.0 mm 0.00 in0.0 mm 0.01 in0.3 mm
06:36 PM 51.2°F10.7°C 50.9°F10.5°C 99% 3.2 mph ENE5.1 kmh ENE 10.0 mph16.1 kmh 30.07 in1018.3 mb 0.00 in0.0 mm 0.00 in0.0 mm 0.01 in0.3 mm
06:41 PM 51.2°F10.7°C 50.9°F10.5°C 99% 2.9 mph NE4.7 kmh NE 9.0 mph14.5 kmh 30.07 in1018.3 mb 0.00 in0.0 mm 0.00 in0.0 mm 0.01 in0.3 mm
06:46 PM 51.3°F10.7°C 51.0°F10.6°C 99% 2.6 mph ENE4.2 kmh ENE 8.0 mph12.9 kmh 30.07 in1018.3 mb 0.00 in0.0 mm 0.00 in0.0 mm 0.01 in0.3 mm
06:51 PM 51.1°F10.6°C 50.8°F10.4°C 99% 4.1 mph NE6.6 kmh NE 8.0 mph12.9 kmh 30.07 in1018.3 mb 0.00 in0.0 mm 0.00 in0.0 mm 0.01 in0.3 mm
06:56 PM 51.1°F10.6°C 50.8°F10.4°C 99% 4.4 mph ENE7.1 kmh ENE 10.0 mph16.1 kmh 30.07 in1018.3 mb 0.00 in0.0 mm 0.00 in0.0 mm 0.01 in0.3 mm
07:01 PM 50.9°F10.5°C 50.6°F10.3°C 99% 6.1 mph ENE9.8 kmh ENE 11.0 mph17.7 kmh 30.07 in1018.3 mb 0.00 in0.0 mm 0.00 in0.0 mm 0.01 in0.3 mm
07:06 PM 50.9°F10.5°C 50.6°F10.3°C 99% 5.4 mph ENE8.7 kmh ENE 11.0 mph17.7 kmh 30.06 in1017.9 mb 0.00 in0.0 mm 0.00 in0.0 mm 0.01 in0.3 mm
07:11 PM 50.9°F10.5°C 50.6°F10.3°C 99% 2.4 mph ENE3.9 kmh ENE 11.0 mph17.7 kmh 30.06 in1017.9 mb 0.00 in0.0 mm 0.00 in0.0 mm 0.01 in0.3 mm
07:16 PM 50.9°F10.5°C 50.6°F10.3°C 99% 1.9 mph E3.1 kmh E 11.0 mph17.7 kmh 30.07 in1018.3 mb 0.00 in0.0 mm 0.00 in0.0 mm 0.01 in0.3 mm
07:21 PM 51.0°F10.6°C 50.7°F10.4°C 99% 2.5 mph ENE4.0 kmh ENE 9.0 mph14.5 kmh 30.07 in1018.3 mb 0.00 in0.0 mm 0.00 in0.0 mm 0.01 in0.3 mm
07:26 PM 50.9°F10.5°C 50.6°F10.3°C 99% 3.6 mph ENE5.8 kmh ENE 12.0 mph19.3 kmh 30.08 in1018.6 mb 0.00 in0.0 mm 0.00 in0.0 mm 0.01 in0.3 mm
07:31 PM 50.9°F10.5°C 50.6°F10.3°C 99% 3.1 mph ENE5.0 kmh ENE 12.0 mph19.3 kmh 30.08 in1018.6 mb 0.00 in0.0 mm 0.00 in0.0 mm 0.01 in0.3 mm
07:36 PM 50.9°F10.5°C 50.6°F10.3°C 99% 4.6 mph ENE7.4 kmh ENE 12.0 mph19.3 kmh 30.08 in1018.6 mb 0.00 in0.0 mm 0.00 in0.0 mm 0.01 in0.3 mm
07:41 PM 50.9°F10.5°C 50.6°F10.3°C 99% 6.3 mph ENE10.1 kmh ENE 12.0 mph19.3 kmh 30.08 in1018.6 mb 0.00 in0.0 mm 0.00 in0.0 mm 0.01 in0.3 mm
07:46 PM 50.8°F10.4°C 50.5°F10.3°C 99% 6.8 mph ENE10.9 kmh ENE 11.0 mph17.7 kmh 30.08 in1018.6 mb 0.00 in0.0 mm 0.00 in0.0 mm 0.01 in0.3 mm
07:51 PM 50.8°F10.4°C 50.5°F10.3°C 99% 5.2 mph E8.4 kmh E 11.0 mph17.7 kmh 30.07 in1018.3 mb 0.00 in0.0 mm 0.00 in0.0 mm 0.01 in0.3 mm
07:56 PM 50.8°F10.4°C 50.5°F10.3°C 99% 2.7 mph NE4.3 kmh NE 11.0 mph17.7 kmh 30.08 in1018.6 mb 0.00 in0.0 mm 0.00 in0.0 mm 0.01 in0.3 mm
08:01 PM 50.7°F10.4°C 50.4°F10.2°C 99% 3.0 mph ENE4.8 kmh ENE 11.0 mph17.7 kmh 30.07 in1018.3 mb 0.00 in0.0 mm 0.00 in0.0 mm 0.01 in0.3 mm
08:06 PM 50.7°F10.4°C 50.4°F10.2°C 99% 3.3 mph NE5.3 kmh NE 11.0 mph17.7 kmh 30.08 in1018.6 mb 0.00 in0.0 mm 0.00 in0.0 mm 0.01 in0.3 mm
08:11 PM 50.6°F10.3°C 50.3°F10.2°C 99% 3.1 mph ENE5.0 kmh ENE 8.0 mph12.9 kmh 30.08 in1018.6 mb 0.00 in0.0 mm 0.00 in0.0 mm 0.01 in0.3 mm
08:16 PM 50.6°F10.3°C 50.3°F10.2°C 99% 2.2 mph ENE3.5 kmh ENE 8.0 mph12.9 kmh 30.08 in1018.6 mb 0.00 in0.0 mm 0.00 in0.0 mm 0.01 in0.3 mm
08:21 PM 50.6°F10.3°C 50.3°F10.2°C 99% 3.9 mph ENE6.3 kmh ENE 8.0 mph12.9 kmh 30.08 in1018.6 mb 0.00 in0.0 mm 0.00 in0.0 mm 0.01 in0.3 mm
08:26 PM 50.5°F10.3°C 50.2°F10.1°C 99% 4.9 mph ENE7.9 kmh ENE 8.0 mph12.9 kmh 30.08 in1018.6 mb 0.00 in0.0 mm 0.00 in0.0 mm 0.01 in0.3 mm
08:31 PM 50.5°F10.3°C 50.2°F10.1°C 99% 5.6 mph E9.0 kmh E 11.0 mph17.7 kmh 30.08 in1018.6 mb 0.00 in0.0 mm 0.00 in0.0 mm 0.01 in0.3 mm
08:36 PM 50.4°F10.2°C 50.1°F10.1°C 99% 3.6 mph ENE5.8 kmh ENE 11.0 mph17.7 kmh 30.08 in1018.6 mb 0.00 in0.0 mm 0.00 in0.0 mm 0.01 in0.3 mm
08:41 PM 50.5°F10.3°C 50.2°F10.1°C 99% 3.5 mph ENE5.6 kmh ENE 11.0 mph17.7 kmh 30.09 in1019.0 mb 0.00 in0.0 mm 0.00 in0.0 mm 0.01 in0.3 mm
08:46 PM 50.4°F10.2°C 50.1°F10.1°C 99% 4.1 mph ENE6.6 kmh ENE 11.0 mph17.7 kmh 30.09 in1019.0 mb 0.00 in0.0 mm 0.00 in0.0 mm 0.01 in0.3 mm
08:51 PM 50.4°F10.2°C 50.1°F10.1°C 99% 2.8 mph E4.5 kmh E 10.0 mph16.1 kmh 30.08 in1018.6 mb 0.00 in0.0 mm 0.00 in0.0 mm 0.01 in0.3 mm
08:56 PM 50.4°F10.2°C 50.1°F10.1°C 99% 4.6 mph ENE7.4 kmh ENE 8.0 mph12.9 kmh 30.08 in1018.6 mb 0.00 in0.0 mm 0.00 in0.0 mm 0.01 in0.3 mm
09:01 PM 50.4°F10.2°C 50.1°F10.1°C 99% 2.7 mph E4.3 kmh E 8.0 mph12.9 kmh 30.08 in1018.6 mb 0.00 in0.0 mm 0.00 in0.0 mm 0.01 in0.3 mm
09:06 PM 50.3°F10.2°C 50.0°F10.0°C 99% 3.3 mph E5.3 kmh E 8.0 mph12.9 kmh 30.08 in1018.6 mb 0.00 in0.0 mm 0.00 in0.0 mm 0.01 in0.3 mm
09:11 PM 50.3°F10.2°C 50.0°F10.0°C 99% 3.2 mph ENE5.1 kmh ENE 9.0 mph14.5 kmh 30.07 in1018.3 mb 0.00 in0.0 mm 0.00 in0.0 mm 0.01 in0.3 mm
09:16 PM 50.2°F10.1°C 49.9°F9.9°C 99% 5.4 mph E8.7 kmh E 9.0 mph14.5 kmh 30.07 in1018.3 mb 0.00 in0.0 mm 0.00 in0.0 mm 0.01 in0.3 mm
09:21 PM 50.1°F10.1°C 49.8°F9.9°C 99% 4.0 mph ENE6.4 kmh ENE 9.0 mph14.5 kmh 30.08 in1018.6 mb 0.00 in0.0 mm 0.00 in0.0 mm 0.01 in0.3 mm
09:26 PM 50.1°F10.1°C 49.8°F9.9°C 99% 2.5 mph E4.0 kmh E 9.0 mph14.5 kmh 30.08 in1018.6 mb 0.00 in0.0 mm 0.00 in0.0 mm 0.01 in0.3 mm
09:31 PM 50.1°F10.1°C 49.8°F9.9°C 99% 3.8 mph ENE6.1 kmh ENE 9.0 mph14.5 kmh 30.07 in1018.3 mb 0.00 in0.0 mm 0.00 in0.0 mm 0.01 in0.3 mm
09:36 PM 50.1°F10.1°C 49.8°F9.9°C 99% 3.0 mph ENE4.8 kmh ENE 9.0 mph14.5 kmh 30.07 in1018.3 mb 0.00 in0.0 mm 0.00 in0.0 mm 0.01 in0.3 mm
09:41 PM 50.1°F10.1°C 49.8°F9.9°C 99% 2.6 mph ENE4.2 kmh ENE 9.0 mph14.5 kmh 30.07 in1018.3 mb 0.00 in0.0 mm 0.00 in0.0 mm 0.01 in0.3 mm
09:46 PM 50.1°F10.1°C 49.8°F9.9°C 99% 3.2 mph ENE5.1 kmh ENE 8.0 mph12.9 kmh 30.08 in1018.6 mb 0.00 in0.0 mm 0.00 in0.0 mm 0.01 in0.3 mm
09:51 PM 50.2°F10.1°C 49.9°F9.9°C 99% 1.4 mph E2.3 kmh E 7.0 mph11.3 kmh 30.08 in1018.6 mb 0.00 in0.0 mm 0.00 in0.0 mm 0.01 in0.3 mm
09:56 PM 50.2°F10.1°C 49.9°F9.9°C 99% 2.8 mph E4.5 kmh E 7.0 mph11.3 kmh 30.08 in1018.6 mb 0.00 in0.0 mm 0.00 in0.0 mm 0.01 in0.3 mm
10:01 PM 50.3°F10.2°C 50.0°F10.0°C 99% 1.5 mph ENE2.4 kmh ENE 7.0 mph11.3 kmh 30.08 in1018.6 mb 0.00 in0.0 mm 0.00 in0.0 mm 0.01 in0.3 mm
10:06 PM 50.3°F10.2°C 50.0°F10.0°C 99% 1.8 mph E2.9 kmh E 6.0 mph9.7 kmh 30.08 in1018.6 mb 0.00 in0.0 mm 0.00 in0.0 mm 0.01 in0.3 mm
10:11 PM 50.3°F10.2°C 50.0°F10.0°C 99% 2.3 mph E3.7 kmh E 6.0 mph9.7 kmh 30.07 in1018.3 mb 0.01 in0.3 mm 0.12 in3.0 mm 0.02 in0.5 mm
10:16 PM 50.3°F10.2°C 50.0°F10.0°C 99% 1.9 mph E3.1 kmh E 4.0 mph6.4 kmh 30.08 in1018.6 mb 0.01 in0.3 mm 0.00 in0.0 mm 0.02 in0.5 mm
10:21 PM 50.3°F10.2°C 50.0°F10.0°C 99% 1.7 mph E2.7 kmh E 4.0 mph6.4 kmh 30.08 in1018.6 mb 0.01 in0.3 mm 0.00 in0.0 mm 0.02 in0.5 mm
10:26 PM 50.4°F10.2°C 50.1°F10.1°C 99% 1.0 mph E1.6 kmh E 4.0 mph6.4 kmh 30.08 in1018.6 mb 0.01 in0.3 mm 0.00 in0.0 mm 0.02 in0.5 mm
10:31 PM 50.4°F10.2°C 50.1°F10.1°C 99% 1.0 mph SE1.6 kmh SE 4.0 mph6.4 kmh 30.08 in1018.6 mb 0.01 in0.3 mm 0.00 in0.0 mm 0.02 in0.5 mm
10:36 PM 50.5°F10.3°C 50.2°F10.1°C 99% 1.0 mph E1.6 kmh E 3.0 mph4.8 kmh 30.08 in1018.6 mb 0.01 in0.3 mm 0.00 in0.0 mm 0.02 in0.5 mm
10:41 PM 50.6°F10.3°C 50.3°F10.2°C 99% 1.0 mph E1.6 kmh E 2.0 mph3.2 kmh 30.07 in1018.3 mb 0.01 in0.3 mm 0.00 in0.0 mm 0.02 in0.5 mm
10:46 PM 50.6°F10.3°C 50.3°F10.2°C 99% 3.4 mph ENE5.5 kmh ENE 5.0 mph8.0 kmh 30.07 in1018.3 mb 0.01 in0.3 mm 0.00 in0.0 mm 0.02 in0.5 mm
10:51 PM 50.6°F10.3°C 50.3°F10.2°C 99% 1.8 mph E2.9 kmh E 5.0 mph8.0 kmh 30.07 in1018.3 mb 0.01 in0.3 mm 0.00 in0.0 mm 0.02 in0.5 mm
10:56 PM 50.6°F10.3°C 50.3°F10.2°C 99% 2.1 mph ENE3.4 kmh ENE 5.0 mph8.0 kmh 30.06 in1017.9 mb 0.01 in0.3 mm 0.00 in0.0 mm 0.02 in0.5 mm
11:00 PM 50.6°F10.3°C 50.3°F10.2°C 99% 2.0 mph E3.2 kmh E 5.0 mph8.0 kmh 30.06 in1017.9 mb 0.01 in0.3 mm 0.00 in0.0 mm 0.02 in0.5 mm
11:05 PM 50.5°F10.3°C 50.2°F10.1°C 99% 4.5 mph E7.2 kmh E 7.0 mph11.3 kmh 30.06 in1017.9 mb 0.01 in0.3 mm 0.00 in0.0 mm 0.02 in0.5 mm
11:10 PM 50.5°F10.3°C 50.2°F10.1°C 99% 2.6 mph E4.2 kmh E 7.0 mph11.3 kmh 30.05 in1017.6 mb 0.00 in0.0 mm 0.00 in0.0 mm 0.02 in0.5 mm
11:15 PM 50.5°F10.3°C 50.2°F10.1°C 99% 1.6 mph E2.6 kmh E 7.0 mph11.3 kmh 30.05 in1017.6 mb 0.00 in0.0 mm 0.00 in0.0 mm 0.02 in0.5 mm
11:20 PM 50.5°F10.3°C 50.2°F10.1°C 99% 2.8 mph E4.5 kmh E 7.0 mph11.3 kmh 30.05 in1017.6 mb 0.00 in0.0 mm 0.00 in0.0 mm 0.02 in0.5 mm
11:25 PM 50.5°F10.3°C 50.2°F10.1°C 99% 1.5 mph E2.4 kmh E 7.0 mph11.3 kmh 30.04 in1017.3 mb 0.00 in0.0 mm 0.00 in0.0 mm 0.02 in0.5 mm
11:30 PM 50.5°F10.3°C 50.2°F10.1°C 99% 2.5 mph ESE4.0 kmh ESE 6.0 mph9.7 kmh 30.03 in1016.9 mb 0.00 in0.0 mm 0.00 in0.0 mm 0.02 in0.5 mm
11:35 PM 50.5°F10.3°C 50.2°F10.1°C 99% 2.5 mph E4.0 kmh E 7.0 mph11.3 kmh 30.03 in1016.9 mb 0.00 in0.0 mm 0.00 in0.0 mm 0.02 in0.5 mm
11:40 PM 50.5°F10.3°C 50.2°F10.1°C 99% 3.3 mph E5.3 kmh E 7.0 mph11.3 kmh 30.03 in1016.9 mb 0.00 in0.0 mm 0.00 in0.0 mm 0.02 in0.5 mm
11:45 PM 50.5°F10.3°C 50.2°F10.1°C 99% 2.0 mph ESE3.2 kmh ESE 7.0 mph11.3 kmh 30.03 in1016.9 mb 0.00 in0.0 mm 0.00 in0.0 mm 0.02 in0.5 mm
11:50 PM 50.5°F10.3°C 50.2°F10.1°C 99% 3.0 mph E4.8 kmh E 7.0 mph11.3 kmh 30.03 in1016.9 mb 0.00 in0.0 mm 0.00 in0.0 mm 0.02 in0.5 mm
11:55 PM 50.5°F10.3°C 50.2°F10.1°C 99% 2.1 mph E3.4 kmh E 7.0 mph11.3 kmh 30.02 in1016.6 mb 0.00 in0.0 mm 0.00 in0.0 mm 0.02 in0.5 mm